Time;durP1;ratioP1;P1;durP2;ratioP2;P2;SDS_P1;SDS_P2;PMS_P1;PMS_P2;Temp;Humidity;BMP_temperature;BMP_pressure;BME280_temperature;BME280_humidity;BME280_pressure;Samples;Min_cycle;Max_cycle;Signal;HPM_P1;HPM_P2
2022/07/03 00:01:41;;;;;;;;;0.00;0.00;;;;;-146.67;26.44;73843.13;5040878;28;62020;-77
2022/07/03 00:04:07;;;;;;;;;0.00;0.00;;;;;-146.67;26.30;73837.16;5041681;28;62010;-77
2022/07/03 00:06:33;;;;;;;;;0.00;0.00;;;;;-146.67;26.45;73841.13;5042293;28;61807;-77
2022/07/03 00:09:00;;;;;;;;;0.00;0.00;;;;;-146.67;26.45;73845.13;5042142;28;62107;-77
2022/07/03 00:11:25;;;;;;;;;0.00;0.00;;;;;-146.67;26.47;73837.16;5041450;28;61956;-77
2022/07/03 00:13:51;;;;;;;;;0.00;0.00;;;;;-146.67;26.59;73833.16;5041638;28;61734;-77
2022/07/03 00:16:17;;;;;;;;;0.00;0.00;;;;;-146.67;26.38;73835.16;5042028;28;62047;-77
2022/07/03 00:18:43;;;;;;;;;0.00;0.00;;;;;-146.67;26.33;73835.16;5040185;28;62073;-77
2022/07/03 00:21:10;;;;;;;;;0.00;0.00;;;;;-146.67;26.49;73843.13;5039971;28;65119;-77
2022/07/03 00:24:08;;;;;;;;;0.00;0.00;;;;;-146.67;26.42;73839.13;5039851;28;62263;-77
2022/07/03 00:26:38;;;;;;;;;0.00;0.00;;;;;-146.67;26.65;73837.16;5040307;28;62305;-77
2022/07/03 00:29:04;;;;;;;;;0.00;0.00;;;;;-146.67;26.75;73841.13;5041933;28;61872;-77
2022/07/03 00:31:31;;;;;;;;;0.00;0.00;;;;;-146.67;26.47;73847.13;5039356;28;64912;-77
2022/07/03 00:33:59;;;;;;;;;0.00;0.00;;;;;-146.67;26.42;73847.13;5042537;28;62513;-77
2022/07/03 00:36:28;;;;;;;;;0.00;0.00;;;;;-146.67;26.68;73859.09;5041966;28;62068;-77
2022/07/03 00:38:54;;;;;;;;;0.00;0.00;;;;;-146.67;26.39;73865.09;5041685;28;62005;-77
2022/07/03 00:41:28;;;;;;;;;0.00;0.00;;;;;-146.67;26.71;73881.06;5041126;28;61789;-77
2022/07/03 00:43:54;;;;;;;;;0.00;0.00;;;;;-146.67;26.68;73895.03;5040254;28;62424;-77
2022/07/03 00:46:22;;;;;;;;;0.00;0.00;;;;;-146.67;26.68;73909.00;5039647;28;61980;-78
2022/07/03 00:48:49;;;;;;;;;0.00;0.00;;;;;-146.67;27.05;73915.00;5041661;28;61835;-77
2022/07/03 00:51:20;;;;;;;;;0.00;0.00;;;;;-146.67;26.64;73913.00;5039816;28;63447;-77
2022/07/03 00:53:46;;;;;;;;;0.00;0.00;;;;;-146.67;26.71;73909.00;5039494;28;61810;-77
2022/07/03 00:56:13;;;;;;;;;0.00;0.00;;;;;-146.67;26.79;73909.00;5041760;28;62062;-77
2022/07/03 00:58:41;;;;;;;;;0.00;0.00;;;;;-146.67;26.65;73917.00;5043961;28;61887;-77
2022/07/03 01:01:10;;;;;;;;;0.00;0.00;;;;;-146.67;26.93;73924.97;5041994;28;64897;-77
2022/07/03 01:03:44;;;;;;;;;0.00;0.00;;;;;-146.67;26.93;73932.97;5044926;28;62126;-77
2022/07/03 01:06:15;;;;;;;;;0.00;0.00;;;;;-146.67;26.90;73942.94;5044937;28;61857;-77
2022/07/03 01:08:47;;;;;;;;;0.00;0.00;;;;;-146.67;27.08;73950.94;5043682;28;62138;-77
2022/07/03 01:11:37;;;;;;;;;0.00;0.00;;;;;-146.67;26.81;73960.91;5044082;28;62138;-77
2022/07/03 01:14:36;;;;;;;;;0.00;0.00;;;;;-146.67;27.42;73972.88;5044642;28;61870;-77
2022/07/03 01:17:11;;;;;;;;;0.00;0.00;;;;;-146.67;26.80;73970.88;5042655;28;62272;-77
2022/07/03 01:19:45;;;;;;;;;0.00;0.00;;;;;-146.67;27.30;73970.88;5044810;28;61799;-77
2022/07/03 01:22:34;;;;;;;;;0.00;0.00;;;;;-146.67;27.36;73976.88;5042307;28;63512;-77
2022/07/03 01:25:14;;;;;;;;;0.00;0.00;;;;;-146.67;27.30;73972.88;5044323;28;62183;-77
2022/07/03 01:28:00;;;;;;;;;0.00;0.00;;;;;-146.67;27.30;73980.88;5043370;28;61930;-77
2022/07/03 01:30:38;;;;;;;;;0.00;0.00;;;;;-146.67;27.44;73984.84;5042654;28;62068;-77
2022/07/03 01:33:10;;;;;;;;;0.00;0.00;;;;;-146.67;27.33;73984.84;5045029;28;61913;-77
2022/07/03 01:35:46;;;;;;;;;0.00;0.00;;;;;-146.67;27.43;73980.88;5044207;28;61997;-77
2022/07/03 01:38:13;;;;;;;;;0.00;0.00;;;;;-146.67;26.98;73978.88;5044474;28;62017;-77
2022/07/03 01:40:41;;;;;;;;;0.00;0.00;;;;;-146.67;27.40;73982.88;5044430;28;62023;-77
2022/07/03 01:43:12;;;;;;;;;0.00;0.00;;;;;-146.67;26.93;73994.84;5042213;28;63865;-77
2022/07/03 01:45:47;;;;;;;;;0.00;0.00;;;;;-146.67;27.25;73998.84;5043691;28;61787;-77
2022/07/03 01:48:14;;;;;;;;;0.00;0.00;;;;;-146.67;27.55;74018.78;5044017;28;61848;-77
2022/07/03 01:50:41;;;;;;;;;0.00;0.00;;;;;-146.67;27.25;74020.78;5044532;28;61777;-77
2022/07/03 01:53:10;;;;;;;;;0.00;0.00;;;;;-146.67;27.76;74016.78;5042898;28;61954;-77
2022/07/03 01:55:38;;;;;;;;;0.00;0.00;;;;;-146.67;27.16;74016.78;5044222;28;62014;-77
2022/07/03 01:58:04;;;;;;;;;0.00;0.00;;;;;-146.67;27.04;74014.81;5044026;28;61965;-77
2022/07/03 02:00:31;;;;;;;;;0.00;0.00;;;;;-146.67;27.22;74020.78;5043257;28;61874;-77
2022/07/03 02:03:06;;;;;;;;;0.00;0.00;;;;;-146.67;27.36;74026.78;5043481;28;62680;-77
2022/07/03 02:05:48;;;;;;;;;0.00;0.00;;;;;-146.67;27.39;74052.72;5042744;28;61743;-77
2022/07/03 02:08:29;;;;;;;;;0.00;0.00;;;;;-146.67;27.62;74064.72;5043797;28;62064;-77
2022/07/03 02:11:10;;;;;;;;;0.00;0.00;;;;;-146.67;27.70;74068.69;5041965;28;61948;-77
2022/07/03 02:13:51;;;;;;;;;0.00;0.00;;;;;-146.67;28.21;74070.69;5042885;28;62721;-77
2022/07/03 02:16:22;;;;;;;;;0.00;0.00;;;;;-146.67;27.84;74072.69;5041981;28;61959;-77
2022/07/03 02:19:11;;;;;;;;;0.00;0.00;;;;;-146.67;27.85;74068.69;5042445;28;61747;-77
2022/07/03 02:21:43;;;;;;;;;0.00;0.00;;;;;-146.67;27.90;74074.69;5042700;28;62087;-76
2022/07/03 02:24:20;;;;;;;;;0.00;0.00;;;;;-146.67;28.18;74078.69;5041054;28;63856;-77
2022/07/03 02:26:54;;;;;;;;;0.00;0.00;;;;;-146.67;28.21;74076.69;5043527;28;62061;-77
2022/07/03 02:29:25;;;;;;;;;0.00;0.00;;;;;-146.67;27.89;74076.69;5041735;28;61963;-76
2022/07/03 02:32:03;;;;;;;;;0.00;0.00;;;;;-146.67;27.66;74086.66;5043674;28;61877;-76
2022/07/03 02:34:31;;;;;;;;;0.00;0.00;;;;;-146.67;28.02;74098.66;5044279;28;61845;-76
2022/07/03 02:37:09;;;;;;;;;0.00;0.00;;;;;-146.67;28.11;74106.63;5043455;28;61835;-77
2022/07/03 02:40:03;;;;;;;;;0.00;0.00;;;;;-146.67;28.37;74114.63;5041996;28;62080;-76
2022/07/03 02:42:33;;;;;;;;;0.00;0.00;;;;;-146.67;28.14;74116.59;5043310;28;61877;-77
2022/07/03 02:45:03;;;;;;;;;0.00;0.00;;;;;-146.67;27.70;74120.59;5042947;28;62178;-77
2022/07/03 02:48:02;;;;;;;;;0.00;0.00;;;;;-146.67;28.13;74126.59;5042770;28;61928;-77
2022/07/03 02:50:28;;;;;;;;;0.00;0.00;;;;;-146.67;27.86;74122.59;5042922;28;61747;-77
2022/07/03 02:53:11;;;;;;;;;0.00;0.00;;;;;-146.67;28.27;74134.56;5043230;28;61735;-77
2022/07/03 02:55:42;;;;;;;;;0.00;0.00;;;;;-146.67;28.55;74140.56;5042598;28;62231;-76
2022/07/03 02:58:26;;;;;;;;;0.00;0.00;;;;;-146.67;28.23;74160.53;5041447;28;61895;-77
2022/07/03 03:01:08;;;;;;;;;0.00;0.00;;;;;-146.67;28.53;74156.53;5041634;28;62239;-76
2022/07/03 03:03:34;;;;;;;;;0.00;0.00;;;;;-146.67;28.61;74162.53;5042056;28;61978;-76
2022/07/03 03:06:14;;;;;;;;;0.00;0.00;;;;;-146.67;28.01;74162.53;5042412;28;62114;-76
2022/07/03 03:08:48;;;;;;;;;0.00;0.00;;;;;-146.67;28.51;74178.50;5043219;28;61908;-76
2022/07/03 03:11:40;;;;;;;;;0.00;0.00;;;;;-146.67;28.38;74188.47;5041690;28;61918;-76
2022/07/03 03:14:09;;;;;;;;;0.00;0.00;;;;;-146.67;28.59;74200.44;5043350;28;61988;-76
2022/07/03 03:16:38;;;;;;;;;0.00;0.00;;;;;-146.67;28.58;74204.44;5040633;28;64161;-77
2022/07/03 03:19:03;;;;;;;;;0.00;0.00;;;;;-146.67;29.08;74210.44;5041169;28;62045;-77
2022/07/03 03:21:31;;;;;;;;;0.00;0.00;;;;;-146.67;29.19;74206.44;5042607;28;61905;-76
2022/07/03 03:23:58;;;;;;;;;0.00;0.00;;;;;-146.67;28.98;74186.47;5042216;28;61988;-76
2022/07/03 03:26:31;;;;;;;;;0.00;0.00;;;;;-146.67;28.72;74180.50;5041632;28;61803;-77
2022/07/03 03:28:56;;;;;;;;;0.00;0.00;;;;;-146.67;28.92;74184.47;5042437;28;61798;-77
2022/07/03 03:31:22;;;;;;;;;0.00;0.00;;;;;-146.67;28.81;74178.50;5040928;28;61894;-77
2022/07/03 03:33:49;;;;;;;;;0.00;0.00;;;;;-146.67;28.69;74176.50;5053211;28;61940;-76
2022/07/03 03:36:17;;;;;;;;;0.00;0.00;;;;;-146.67;29.04;74176.50;5062120;28;61754;-76
2022/07/03 03:38:43;;;;;;;;;0.00;0.00;;;;;-146.67;29.01;74174.50;5061407;28;61778;-76
2022/07/03 03:41:09;;;;;;;;;0.00;0.00;;;;;-146.67;28.78;74172.50;5062217;28;61956;-76
2022/07/03 03:43:35;;;;;;;;;0.00;0.00;;;;;-146.67;28.81;74172.50;5062599;28;61931;-77
2022/07/03 03:46:02;;;;;;;;;0.00;0.00;;;;;-146.67;29.03;74180.50;5061758;28;62031;-77
2022/07/03 03:48:29;;;;;;;;;0.00;0.00;;;;;-146.67;28.72;74184.47;5062537;28;61804;-77
2022/07/03 03:50:56;;;;;;;;;0.00;0.00;;;;;-146.67;28.97;74200.44;5078001;28;61899;-76
2022/07/03 03:53:24;;;;;;;;;0.00;0.00;;;;;-146.67;28.81;74198.47;5061956;28;62183;-77
2022/07/03 03:56:05;;;;;;;;;0.00;0.00;;;;;-146.67;28.95;74194.47;5060159;28;64763;-76
2022/07/03 03:58:32;;;;;;;;;0.00;0.00;;;;;-146.67;28.90;74188.47;5060978;28;62328;-76
2022/07/03 04:01:00;;;;;;;;;0.00;0.00;;;;;-146.67;28.85;74192.47;5061986;28;61763;-76
2022/07/03 04:03:26;;;;;;;;;0.00;0.00;;;;;-146.67;29.12;74182.50;5062444;28;61798;-77
2022/07/03 04:05:53;;;;;;;;;0.00;0.00;;;;;-146.67;29.03;74198.47;5061824;28;63233;-76
2022/07/03 04:08:19;;;;;;;;;0.00;0.00;;;;;-146.67;29.00;74204.44;5062251;28;61969;-76
2022/07/03 04:10:45;;;;;;;;;0.00;0.00;;;;;-146.67;28.98;74204.44;5061844;28;61867;-76
2022/07/03 04:13:10;;;;;;;;;0.00;0.00;;;;;-146.67;29.20;74216.44;5062336;28;61762;-76
2022/07/03 04:15:36;;;;;;;;;0.00;0.00;;;;;-146.67;28.99;74218.41;5060040;28;63558;-77
2022/07/03 04:18:01;;;;;;;;;0.00;0.00;;;;;-146.67;29.07;74230.41;5062065;28;61921;-76
2022/07/03 04:20:27;;;;;;;;;0.00;0.00;;;;;-146.67;29.31;74226.41;5060437;28;61883;-76
2022/07/03 04:22:52;;;;;;;;;0.00;0.00;;;;;-146.67;29.15;74228.41;5060407;28;61805;-76
2022/07/03 04:25:18;;;;;;;;;0.00;0.00;;;;;-146.67;29.06;74214.44;5061307;28;62027;-76
2022/07/03 04:27:44;;;;;;;;;0.00;0.00;;;;;-146.67;28.50;74214.44;5060497;28;61999;-76
2022/07/03 04:30:10;;;;;;;;;0.00;0.00;;;;;-146.67;28.99;74220.41;5060398;28;62092;-76
2022/07/03 04:32:39;;;;;;;;;0.00;0.00;;;;;-146.67;29.35;74232.41;5061861;28;62158;-77
2022/07/03 04:35:05;;;;;;;;;0.00;0.00;;;;;-146.67;29.09;74246.38;5064766;28;61835;-76
2022/07/03 04:37:31;;;;;;;;;0.00;0.00;;;;;-146.67;29.01;74254.34;5065496;28;61699;-76
2022/07/03 04:39:56;;;;;;;;;0.00;0.00;;;;;-146.67;29.28;74246.38;5064746;28;62097;-76
2022/07/03 04:42:22;;;;;;;;;0.00;0.00;;;;;-146.67;29.67;74248.38;5064424;28;62025;-76
2022/07/03 04:44:47;;;;;;;;;0.00;0.00;;;;;-146.67;29.24;74246.38;5064746;28;61760;-76
2022/07/03 04:47:14;;;;;;;;;0.00;0.00;;;;;-146.67;29.39;74244.38;5065199;28;62090;-76
2022/07/03 04:49:40;;;;;;;;;0.00;0.00;;;;;-146.67;29.35;74250.38;5063654;28;61818;-76
2022/07/03 04:52:06;;;;;;;;;0.00;0.00;;;;;-146.67;29.20;74246.38;5065485;28;61970;-76
2022/07/03 04:54:31;;;;;;;;;0.00;0.00;;;;;-146.67;29.07;74252.34;5062308;28;63788;-76
2022/07/03 04:56:57;;;;;;;;;0.00;0.00;;;;;-146.67;29.09;74244.38;5065094;28;62161;-77
2022/07/03 04:59:22;;;;;;;;;0.00;0.00;;;;;-146.67;29.26;74254.34;5065324;28;62272;-76
2022/07/03 05:01:49;;;;;;;;;0.00;0.00;;;;;-146.67;29.43;74250.38;5063246;28;61790;-76
2022/07/03 05:04:15;;;;;;;;;0.00;0.00;;;;;-146.67;28.89;74240.38;5064393;28;61967;-76
2022/07/03 05:06:41;;;;;;;;;0.00;0.00;;;;;-146.67;29.14;74242.38;5064903;28;61713;-76
2022/07/03 05:09:06;;;;;;;;;0.00;0.00;;;;;-146.67;28.87;74260.34;5064393;28;61770;-77
2022/07/03 05:11:32;;;;;;;;;0.00;0.00;;;;;-146.67;29.32;74260.34;5065211;28;61726;-77
2022/07/03 05:13:57;;;;;;;;;0.00;0.00;;;;;-146.67;29.09;74256.34;5064468;28;61845;-76
2022/07/03 05:16:23;;;;;;;;;0.00;0.00;;;;;-146.67;29.39;74254.34;5064380;28;61998;-76
2022/07/03 05:18:48;;;;;;;;;0.00;0.00;;;;;-146.67;28.77;74238.38;5063503;28;61797;-81
2022/07/03 05:21:13;;;;;;;;;0.00;0.00;;;;;-146.67;28.97;74224.41;5063574;28;62021;-77
2022/07/03 05:23:39;;;;;;;;;0.00;0.00;;;;;-146.67;29.01;74208.44;5063121;28;61742;-77
2022/07/03 05:26:04;;;;;;;;;0.00;0.00;;;;;-146.67;28.89;74196.47;5064970;28;61905;-77
2022/07/03 05:28:30;;;;;;;;;0.00;0.00;;;;;-146.67;29.09;74186.47;5065041;28;61813;-77
2022/07/03 05:30:55;;;;;;;;;0.00;0.00;;;;;-146.67;28.91;74164.53;5064126;28;61991;-77
2022/07/03 05:33:21;;;;;;;;;0.00;0.00;;;;;-146.67;28.50;74136.56;5062571;28;64326;-77
2022/07/03 05:35:46;;;;;;;;;0.00;0.00;;;;;-146.67;28.38;74116.59;5064476;28;62027;-77
2022/07/03 05:38:12;;;;;;;;;0.00;0.00;;;;;-146.67;28.22;74060.72;5062770;28;61813;-78
2022/07/03 05:40:37;;;;;;;;;0.00;0.00;;;;;-146.67;27.70;73988.84;5063387;28;62184;-77
2022/07/03 05:43:03;;;;;;;;;0.00;0.00;;;;;-146.67;27.30;73917.00;5062716;28;63684;-77
2022/07/03 05:45:28;;;;;;;;;0.00;0.00;;;;;-146.67;26.79;73829.16;5064672;28;61805;-77
2022/07/03 05:47:54;;;;;;;;;0.00;0.00;;;;;-146.67;26.12;73767.28;5062671;28;62176;-77
2022/07/03 05:50:19;;;;;;;;;0.00;0.00;;;;;-146.67;26.36;73743.31;5064142;28;61989;-77
2022/07/03 05:52:44;;;;;;;;;0.00;0.00;;;;;-146.67;26.19;73735.34;5062939;28;62967;-77
2022/07/03 05:55:10;;;;;;;;;0.00;0.00;;;;;-146.67;26.30;73731.34;5063090;28;62307;-77
2022/07/03 05:57:35;;;;;;;;;0.00;0.00;;;;;-146.67;26.00;73699.41;5064569;28;62070;-77
2022/07/03 06:00:01;;;;;;;;;0.00;0.00;;;;;-146.67;26.28;73697.41;5064002;28;61825;-77
2022/07/03 06:02:27;;;;;;;;;0.00;0.00;;;;;-146.67;26.32;73725.38;5063331;28;61992;-77
2022/07/03 06:04:52;;;;;;;;;0.00;0.00;;;;;-146.67;26.39;73725.38;5062644;28;61940;-77
2022/07/03 06:07:18;;;;;;;;;0.00;0.00;;;;;-146.67;26.59;73751.31;5062703;28;61905;-77
2022/07/03 06:09:44;;;;;;;;;0.00;0.00;;;;;-146.67;26.55;73747.31;5064201;28;61910;-77
2022/07/03 06:12:09;;;;;;;;;0.00;0.00;;;;;-146.67;26.68;73779.25;5062327;28;63997;-77
2022/07/03 06:14:35;;;;;;;;;0.00;0.00;;;;;-146.67;26.59;73799.22;5062881;28;61874;-77
2022/07/03 06:17:00;;;;;;;;;0.00;0.00;;;;;-146.67;26.68;73817.19;5063100;28;61818;-77
2022/07/03 06:19:26;;;;;;;;;0.00;0.00;;;;;-146.67;27.08;73809.19;5064185;28;62079;-77
2022/07/03 06:21:51;;;;;;;;;0.00;0.00;;;;;-146.67;27.10;73799.22;5061682;28;62653;-77
2022/07/03 06:24:17;;;;;;;;;0.00;0.00;;;;;-146.67;26.87;73779.25;5063100;28;61989;-85
2022/07/03 06:26:42;;;;;;;;;0.00;0.00;;;;;-146.67;26.76;73741.34;5064249;28;61936;-81
2022/07/03 06:29:08;;;;;;;;;0.00;0.00;;;;;-146.67;26.15;73673.47;5062365;28;62106;-80
2022/07/03 06:31:33;;;;;;;;;0.00;0.00;;;;;-146.67;25.60;73529.75;5062822;28;61923;-81
2022/07/03 06:33:59;;;;;;;;;0.00;0.00;;;;;-146.67;25.71;73497.81;5063393;28;62115;-81
2022/07/03 06:36:24;;;;;;;;;0.00;0.00;;;;;-146.67;25.54;73483.84;5062000;28;62023;-81
2022/07/03 06:38:49;;;;;;;;;0.00;0.00;;;;;-146.67;25.92;73547.72;5062685;28;62353;-81
2022/07/03 06:41:15;;;;;;;;;0.00;0.00;;;;;-146.67;26.31;73637.53;5062799;28;62169;-81
2022/07/03 06:43:40;;;;;;;;;0.00;0.00;;;;;-146.67;26.59;73695.41;5063587;28;61861;-81
2022/07/03 06:46:06;;;;;;;;;0.00;0.00;;;;;-146.67;26.73;73745.31;5063047;28;61858;-81
2022/07/03 06:48:31;;;;;;;;;0.00;0.00;;;;;-146.67;27.05;73791.22;5063746;28;61909;-81
2022/07/03 06:50:57;;;;;;;;;0.00;0.00;;;;;-146.67;27.34;73801.22;5062230;28;61779;-81
2022/07/03 06:53:22;;;;;;;;;0.00;0.00;;;;;-146.67;27.28;73819.19;5062995;28;61916;-81
2022/07/03 06:55:47;;;;;;;;;0.00;0.00;;;;;-146.67;27.16;73833.16;5062477;28;61780;-81
2022/07/03 06:58:14;;;;;;;;;0.00;0.00;;;;;-146.67;27.26;73855.09;5063442;28;61825;-83
2022/07/03 07:00:42;;;;;;;;;0.00;0.00;;;;;-146.67;27.46;73881.06;5061585;28;61854;-84
2022/07/03 07:03:08;;;;;;;;;0.00;0.00;;;;;-146.67;27.50;73901.03;5061243;28;62115;-80
2022/07/03 07:05:33;;;;;;;;;0.00;0.00;;;;;-146.67;27.45;73920.97;5056640;28;62197;-82
2022/07/03 07:07:59;;;;;;;;;0.00;0.00;;;;;-146.67;28.04;73936.94;5053615;28;61803;-81
2022/07/03 07:10:25;;;;;;;;;0.00;0.00;;;;;-146.67;27.76;73938.94;5073801;28;63677;-80
2022/07/03 07:12:50;;;;;;;;;0.00;0.00;;;;;-146.67;28.23;73950.94;5060439;28;62113;-79
2022/07/03 07:15:16;;;;;;;;;0.00;0.00;;;;;-146.67;28.07;73940.94;5052902;28;63944;-79
2022/07/03 07:17:41;;;;;;;;;0.00;0.00;;;;;-146.67;27.81;73928.97;5058756;28;61888;-80
2022/07/03 07:20:07;;;;;;;;;0.00;0.00;;;;;-146.67;27.99;73907.00;5057906;28;63633;-85
2022/07/03 07:22:33;;;;;;;;;0.00;0.00;;;;;-146.67;27.89;73928.97;5059182;28;61996;-84
2022/07/03 07:24:58;;;;;;;;;0.00;0.00;;;;;-146.67;27.70;73940.94;5058004;28;61900;-85
2022/07/03 07:27:24;;;;;;;;;0.00;0.00;;;;;-146.67;27.99;73918.97;5058559;28;62083;-85
2022/07/03 07:29:49;;;;;;;;;0.00;0.00;;;;;-146.67;27.82;73932.97;5059008;28;63271;-85
2022/07/03 07:32:16;;;;;;;;;0.00;0.00;;;;;-146.67;27.64;73954.91;5051617;28;62064;-83
2022/07/03 07:34:42;;;;;;;;;0.00;0.00;;;;;-146.67;28.16;73952.91;5053804;28;61890;-83
2022/07/03 07:37:07;;;;;;;;;0.00;0.00;;;;;-146.67;28.18;73940.94;5050162;28;61850;-86
2022/07/03 07:39:33;;;;;;;;;0.00;0.00;;;;;-146.67;27.87;73938.94;5058689;28;64927;-86
2022/07/03 07:41:58;;;;;;;;;0.00;0.00;;;;;-146.67;28.18;73918.97;5065180;28;61887;-86
2022/07/03 07:44:24;;;;;;;;;0.00;0.00;;;;;-146.67;28.28;73909.00;5059965;28;61945;-87
2022/07/03 07:46:49;;;;;;;;;0.00;0.00;;;;;-146.67;27.70;73885.06;5059578;28;62145;-87
2022/07/03 07:49:15;;;;;;;;;0.00;0.00;;;;;-146.67;27.87;73893.03;5058972;28;63712;-87
2022/07/03 07:51:40;;;;;;;;;0.00;0.00;;;;;-146.67;27.93;73905.00;5059243;28;61965;-86
2022/07/03 07:54:06;;;;;;;;;0.00;0.00;;;;;-146.67;27.83;73887.03;5058141;28;61915;-86
2022/07/03 07:56:31;;;;;;;;;0.00;0.00;;;;;-146.67;27.65;73885.06;5062035;28;62113;-80
2022/07/03 07:58:57;;;;;;;;;0.00;0.00;;;;;-146.67;28.07;73891.03;5060540;28;61845;-81
2022/07/03 08:06:50;;;;;;;;;0.00;0.00;;;;;-146.67;27.98;73917.00;5060199;28;61990;-85
2022/07/03 08:09:16;;;;;;;;;0.00;0.00;;;;;-146.67;27.89;73907.00;5062849;28;61810;-83
2022/07/03 08:11:41;;;;;;;;;0.00;0.00;;;;;-146.67;27.96;73879.06;5061453;28;61923;-87
2022/07/03 08:14:07;;;;;;;;;0.00;0.00;;;;;-146.67;27.84;73875.06;5064756;28;62261;-88
2022/07/03 08:16:34;;;;;;;;;0.00;0.00;;;;;-146.67;27.48;73879.06;5064270;28;61940;-79
2022/07/03 08:19:00;;;;;;;;;0.00;0.00;;;;;-146.67;27.89;73897.03;5064022;28;62042;-82
2022/07/03 08:21:25;;;;;;;;;0.00;0.00;;;;;-146.67;27.81;73893.03;5063302;28;61921;-82
2022/07/03 08:23:51;;;;;;;;;0.00;0.00;;;;;-146.67;27.76;73909.00;5063713;28;62092;-80
2022/07/03 08:26:16;;;;;;;;;0.00;0.00;;;;;-146.67;28.24;73915.00;5061488;28;62237;-80
2022/07/03 08:28:42;;;;;;;;;0.00;0.00;;;;;-146.67;28.26;73901.03;5062714;28;61843;-77
2022/07/03 08:31:07;;;;;;;;;0.00;0.00;;;;;-146.67;28.31;73889.03;5061606;28;62015;-77
2022/07/03 08:33:33;;;;;;;;;0.00;0.00;;;;;-146.67;27.90;73877.06;5062089;28;61898;-81
2022/07/03 08:35:58;;;;;;;;;0.00;0.00;;;;;-146.67;28.01;73883.06;5061088;28;62275;-79
2022/07/03 08:38:30;;;;;;;;;0.00;0.00;;;;;-146.67;27.81;73875.06;5059639;28;61987;-78
2022/07/03 08:40:59;;;;;;;;;0.00;0.00;;;;;-146.67;27.95;73863.09;5062919;28;61725;-78
2022/07/03 08:43:24;;;;;;;;;0.00;0.00;;;;;-146.67;28.15;73853.13;5060270;28;61789;-79
2022/07/03 08:45:50;;;;;;;;;0.00;0.00;;;;;-146.67;27.96;73835.16;5061307;28;62107;-79
2022/07/03 08:48:18;;;;;;;;;0.00;0.00;;;;;-146.67;28.21;73819.19;5062943;28;62168;-79
2022/07/03 08:50:45;;;;;;;;;0.00;0.00;;;;;-146.67;28.22;73807.19;5074570;27;61909;-79
2022/07/03 08:53:11;;;;;;;;;0.00;0.00;;;;;-146.67;27.83;73809.19;5076388;28;61839;-78
2022/07/03 08:55:37;;;;;;;;;0.00;0.00;;;;;-146.67;27.92;73843.13;5080816;27;61978;-79
2022/07/03 08:58:19;;;;;;;;;0.00;0.00;;;;;-146.67;27.73;73841.13;5073841;28;61922;-80
2022/07/03 09:00:46;;;;;;;;;0.00;0.00;;;;;-146.67;27.57;73827.16;5084738;28;61961;-80
2022/07/03 09:03:15;;;;;;;;;0.00;0.00;;;;;-146.67;27.44;73831.16;5085058;28;61829;-80
2022/07/03 09:05:41;;;;;;;;;0.00;0.00;;;;;-146.67;27.70;73837.16;5085624;27;61785;-80
2022/07/03 09:08:08;;;;;;;;;0.00;0.00;;;;;-146.67;27.78;73845.13;5083585;28;63716;-80
2022/07/03 09:10:34;;;;;;;;;0.00;0.00;;;;;-146.67;28.15;73825.16;5084878;27;61897;-80
2022/07/03 09:13:00;;;;;;;;;0.00;0.00;;;;;-146.67;27.76;73789.25;5081128;27;61792;-80
2022/07/03 09:15:25;;;;;;;;;0.00;0.00;;;;;-146.67;27.44;73785.25;5068857;28;61820;-80
2022/07/03 09:17:59;;;;;;;;;0.00;0.00;;;;;-146.67;27.44;73805.22;5073793;28;63906;-81
2022/07/03 09:20:30;;;;;;;;;0.00;0.00;;;;;-146.67;27.84;73797.22;5085025;27;62848;-81
2022/07/03 09:23:20;;;;;;;;;0.00;0.00;;;;;-146.67;27.43;73773.28;5081518;27;61921;-80
2022/07/03 09:25:59;;;;;;;;;0.00;0.00;;;;;-146.67;27.39;73731.34;5072631;28;61826;-81
2022/07/03 09:28:50;;;;;;;;;0.00;0.00;;;;;-146.67;27.33;73729.34;5073589;28;62063;-81
2022/07/03 09:31:18;;;;;;;;;0.00;0.00;;;;;-146.67;27.53;73735.34;5077288;28;62260;-81
2022/07/03 09:34:03;;;;;;;;;0.00;0.00;;;;;-146.67;27.36;73745.31;5074688;28;61776;-81
2022/07/03 09:36:43;;;;;;;;;0.00;0.00;;;;;-146.67;27.73;73751.31;5064756;28;61782;-80
2022/07/03 09:39:31;;;;;;;;;0.00;0.00;;;;;-146.67;27.13;73695.41;5075886;28;62007;-81
2022/07/03 09:42:09;;;;;;;;;0.00;0.00;;;;;-146.67;26.96;73657.50;5079627;28;62173;-81
2022/07/03 09:44:45;;;;;;;;;0.00;0.00;;;;;-146.67;27.18;73697.41;5084384;27;62127;-87
2022/07/03 09:47:23;;;;;;;;;0.00;0.00;;;;;-146.67;26.85;73703.41;5079230;27;62115;-82
2022/07/03 09:49:57;;;;;;;;;0.00;0.00;;;;;-146.67;26.94;73705.41;5063373;28;61757;-81
2022/07/03 09:52:46;;;;;;;;;0.00;0.00;;;;;-146.67;27.16;73681.44;5062759;28;61970;-81
2022/07/03 09:55:13;;;;;;;;;0.00;0.00;;;;;-146.67;26.85;73705.41;5073900;28;62098;-81
2022/07/03 09:57:46;;;;;;;;;0.00;0.00;;;;;-146.67;26.83;73735.34;5074151;28;62024;-81
2022/07/03 10:00:29;;;;;;;;;0.00;0.00;;;;;-146.67;27.30;73755.31;5065079;28;63649;-81
2022/07/03 10:03:03;;;;;;;;;0.00;0.00;;;;;-146.67;26.87;73729.34;5047855;28;61806;-81
2022/07/03 10:05:37;;;;;;;;;0.00;0.00;;;;;-146.67;26.99;73723.38;5061000;28;62027;-81
2022/07/03 10:08:06;;;;;;;;;0.00;0.00;;;;;-146.67;26.91;73721.38;5068389;28;61977;-81
2022/07/03 10:10:35;;;;;;;;;0.00;0.00;;;;;-146.67;26.75;73687.44;5069313;27;64722;-81
2022/07/03 10:13:01;;;;;;;;;0.00;0.00;;;;;-146.67;26.76;73645.53;5066958;28;62006;-81
2022/07/03 10:15:28;;;;;;;;;0.00;0.00;;;;;-146.67;26.49;73589.63;5072938;27;61757;-81
2022/07/03 10:17:57;;;;;;;;;0.00;0.00;;;;;-146.67;26.59;73589.63;5073319;28;62837;-81
2022/07/03 10:20:32;;;;;;;;;0.00;0.00;;;;;-146.67;25.93;73559.69;5068513;28;61972;-81
2022/07/03 10:22:57;;;;;;;;;0.00;0.00;;;;;-146.67;26.03;73545.72;5072572;28;61715;-79
2022/07/03 10:25:23;;;;;;;;;0.00;0.00;;;;;-146.67;26.06;73525.75;5061967;28;62033;-77
2022/07/03 10:27:49;;;;;;;;;0.00;0.00;;;;;-146.67;26.20;73497.81;5062978;28;62302;-83
2022/07/03 10:30:20;;;;;;;;;0.00;0.00;;;;;-146.67;25.70;73511.78;5076993;28;63967;-81
2022/07/03 10:32:48;;;;;;;;;0.00;0.00;;;;;-146.67;26.25;73581.66;5062303;28;62269;-80
2022/07/03 10:35:19;;;;;;;;;0.00;0.00;;;;;-146.67;25.92;73585.63;5066020;28;61984;-78
2022/07/03 10:38:03;;;;;;;;;0.00;0.00;;;;;-146.67;25.95;73597.63;5063029;28;61961;-79
2022/07/03 10:46:36;;;;;;;;;0.00;0.00;;;;;-146.67;25.73;73527.75;5063020;28;61946;-79
2022/07/03 10:49:06;;;;;;;;;0.00;0.00;;;;;-146.67;25.67;73529.75;5062970;28;61879;-80
2022/07/03 10:52:02;;;;;;;;;0.00;0.00;;;;;-146.67;26.08;73557.69;5062408;28;61838;-79
2022/07/03 10:54:29;;;;;;;;;0.00;0.00;;;;;-146.67;25.67;73585.63;5056812;28;62085;-80
2022/07/03 10:56:57;;;;;;;;;0.00;0.00;;;;;-146.67;25.60;73577.66;5060737;28;62139;-80
2022/07/03 10:59:46;;;;;;;;;0.00;0.00;;;;;-146.67;25.52;73507.78;5063265;28;61829;-81
2022/07/03 11:02:44;;;;;;;;;0.00;0.00;;;;;-146.67;25.30;73425.97;5061909;28;61964;-80
2022/07/03 11:05:24;;;;;;;;;0.00;0.00;;;;;-146.67;25.26;73362.09;5062881;28;62138;-80
2022/07/03 11:07:49;;;;;;;;;0.00;0.00;;;;;-146.67;25.00;73342.13;5062646;28;61894;-79
2022/07/03 11:10:15;;;;;;;;;0.00;0.00;;;;;-146.67;25.22;73324.16;5062418;28;61844;-78
2022/07/03 11:12:58;;;;;;;;;0.00;0.00;;;;;-146.67;24.62;73310.19;5062076;28;62750;-77
2022/07/03 11:15:27;;;;;;;;;1.00;1.00;;;;;-146.67;25.28;73368.09;5046405;28;61963;-81
2022/07/03 11:18:08;;;;;;;;;0.00;0.00;;;;;-146.67;25.34;73421.97;5062179;28;62724;-82
2022/07/03 11:20:47;;;;;;;;;0.00;0.00;;;;;-146.67;24.85;73392.03;5062982;28;62023;-81
2022/07/03 11:23:13;;;;;;;;;0.00;0.00;;;;;-146.67;24.76;73384.06;5060942;28;61997;-78
2022/07/03 11:25:38;;;;;;;;;0.00;0.00;;;;;-146.67;25.02;73356.09;5060310;28;61758;-84
2022/07/03 11:28:05;;;;;;;;;0.00;0.00;;;;;-146.67;25.21;73314.19;5062466;28;61984;-82
2022/07/03 11:30:31;;;;;;;;;0.00;0.00;;;;;-146.67;24.45;73264.31;5062734;28;62284;-76
2022/07/03 11:32:59;;;;;;;;;0.00;0.00;;;;;-146.67;24.27;73262.31;5069000;28;62089;-83
2022/07/03 11:35:57;;;;;;;;;0.00;0.00;;;;;-146.67;24.33;73246.34;5062608;28;62285;-82
2022/07/03 11:38:29;;;;;;;;;0.00;0.00;;;;;-146.67;24.14;73226.38;5019632;28;62155;-82
2022/07/03 11:40:57;;;;;;;;;0.00;0.00;;;;;-146.67;24.37;73214.41;5019531;28;61861;-82